Time;durP1;ratioP1;P1;durP2;ratioP2;P2;SDS_P1;SDS_P2;PMS_P1;PMS_P2;Temp;Humidity;BMP_temperature;BMP_pressure;BME280_temperature;BME280_humidity;BME280_pressure;Samples;Min_cycle;Max_cycle;Signal;HPM_P1;HPM_P2
2020/12/08 00:00:28;;;;;;;24.12;11.18;;;;;;;-7.44;78.48;101433.37;1748390;82;21289;-78
2020/12/08 00:03:34;;;;;;;20.30;11.63;;;;;;;-7.41;78.40;101419.15;1748429;82;21290;-77
2020/12/08 00:06:40;;;;;;;15.68;7.40;;;;;;;-7.39;78.57;101416.86;1747612;82;21229;-77
2020/12/08 00:09:45;;;;;;;18.15;9.28;;;;;;;-7.37;78.48;101411.07;1748486;82;21836;-78
2020/12/08 00:12:51;;;;;;;21.97;9.53;;;;;;;-7.34;78.47;101418.08;1747268;82;21868;-77
2020/12/08 00:15:57;;;;;;;26.62;11.88;;;;;;;-7.32;78.96;101420.27;1748382;82;21298;-77
2020/12/08 00:19:05;;;;;;;21.35;10.00;;;;;;;-7.28;79.31;101415.30;1748457;82;21703;-77
2020/12/08 00:22:10;;;;;;;22.48;10.82;;;;;;;-7.22;79.76;101392.55;1748447;82;21179;-77
2020/12/08 00:25:16;;;;;;;27.48;9.48;;;;;;;-7.16;79.96;101409.67;1748525;82;21358;-77
2020/12/08 00:28:22;;;;;;;22.40;11.93;;;;;;;-7.13;80.03;101412.27;1747897;82;21309;-78
2020/12/08 00:31:33;;;;;;;27.00;15.28;;;;;;;-7.05;80.25;101411.62;1748526;82;21890;-78
2020/12/08 00:34:38;;;;;;;70.12;40.23;;;;;;;-6.97;80.42;101395.45;1748539;82;21309;-78
2020/12/08 00:37:44;;;;;;;21.75;9.78;;;;;;;-6.89;80.35;101377.98;1766670;80;21324;-78
2020/12/08 00:40:50;;;;;;;16.87;8.83;;;;;;;-6.84;80.43;101374.74;1742382;82;21295;-78
2020/12/08 00:43:56;;;;;;;19.57;10.63;;;;;;;-6.79;80.50;101384.80;1706337;84;22719;-78
2020/12/08 00:47:03;;;;;;;20.57;10.03;;;;;;;-6.75;80.54;101373.17;1704469;84;21245;-78
2020/12/08 00:50:10;;;;;;;20.45;10.90;;;;;;;-6.70;80.52;101355.30;1698218;84;21256;-78
2020/12/08 00:53:17;;;;;;;22.52;10.82;;;;;;;-6.67;80.54;101367.20;1765135;81;21335;-78
2020/12/08 00:56:21;;;;;;;22.93;12.25;;;;;;;-6.65;80.34;101365.35;1764902;81;21307;-78
2020/12/08 00:59:26;;;;;;;37.15;25.90;;;;;;;-6.64;80.28;101371.55;1763996;81;21193;-78
2020/12/08 01:02:31;;;;;;;33.13;18.70;;;;;;;-6.62;80.34;101361.28;1765102;81;21157;-78
2020/12/08 01:05:37;;;;;;;18.20;9.40;;;;;;;-6.57;80.49;101367.81;1699651;84;21308;-78
2020/12/08 01:08:44;;;;;;;18.48;9.30;;;;;;;-6.54;80.64;101376.59;1765034;81;21871;-78
2020/12/08 01:11:51;;;;;;;31.73;19.82;;;;;;;-6.49;80.48;101365.83;1699612;84;21305;-78
2020/12/08 01:14:57;;;;;;;26.75;18.12;;;;;;;-6.48;80.65;101355.13;1727562;83;21848;-77
2020/12/08 01:18:04;;;;;;;31.42;19.00;;;;;;;-6.45;81.05;101369.66;1764053;81;21359;-78
2020/12/08 01:21:11;;;;;;;63.70;39.35;;;;;;;-6.39;81.17;101355.79;1701164;84;21923;-79
2020/12/08 01:24:16;;;;;;;20.60;12.68;;;;;;;-6.37;81.28;101350.81;1763678;81;21228;-78
2020/12/08 01:27:23;;;;;;;28.65;16.65;;;;;;;-6.36;81.31;101368.53;1764730;81;21327;-78
2020/12/08 01:30:29;;;;;;;28.27;17.92;;;;;;;-6.36;81.42;101351.69;1698454;84;21340;-79
2020/12/08 01:33:35;;;;;;;42.80;28.80;;;;;;;-6.34;81.50;101344.55;1699613;84;21375;-78
2020/12/08 01:36:42;;;;;;;26.27;13.65;;;;;;;-6.32;81.63;101321.40;1699610;84;21395;-77
2020/12/08 01:39:49;;;;;;;53.20;37.33;;;;;;;-6.31;81.56;101324.47;1699793;84;21166;-78
2020/12/08 01:42:57;;;;;;;30.55;20.40;;;;;;;-6.31;81.44;101312.48;1698670;84;21210;-78
2020/12/08 01:46:04;;;;;;;20.02;10.72;;;;;;;-6.34;81.18;101331.23;1702137;84;21229;-78
2020/12/08 01:49:10;;;;;;;15.65;9.13;;;;;;;-6.35;81.08;101339.69;1703781;84;21354;-78
2020/12/08 01:52:16;;;;;;;27.32;13.53;;;;;;;-6.41;79.79;101338.50;1726935;83;21299;-78
2020/12/08 01:55:24;;;;;;;24.43;9.20;;;;;;;-6.50;79.22;101325.45;1727124;83;21739;-78
2020/12/08 01:58:30;;;;;;;28.95;11.65;;;;;;;-6.54;78.95;101327.78;1703742;84;21315;-78
2020/12/08 02:01:37;;;;;;;35.52;19.20;;;;;;;-6.59;78.85;101329.24;1725695;83;21315;-78
2020/12/08 02:04:45;;;;;;;18.23;8.70;;;;;;;-6.61;78.95;101331.09;1704400;84;21335;-78
2020/12/08 02:07:52;;;;;;;23.83;10.82;;;;;;;-6.62;79.10;101325.36;1702895;84;21292;-78
2020/12/08 02:10:59;;;;;;;25.82;13.70;;;;;;;-6.59;79.05;101319.06;1705560;84;21320;-78
2020/12/08 02:14:06;;;;;;;20.95;11.20;;;;;;;-6.61;79.02;101323.56;1705053;84;21757;-78
2020/12/08 02:17:12;;;;;;;20.95;9.65;;;;;;;-6.63;79.13;101336.92;1705037;84;21366;-78
2020/12/08 02:20:18;;;;;;;34.18;19.85;;;;;;;-6.65;79.19;101332.09;1727991;83;21284;-78
2020/12/08 02:23:24;;;;;;;26.45;14.47;;;;;;;-6.66;79.44;101350.77;1705015;84;21316;-78
2020/12/08 02:26:29;;;;;;;22.65;14.23;;;;;;;-6.66;79.57;101335.67;1726702;83;21831;-78
2020/12/08 02:29:35;;;;;;;29.75;16.75;;;;;;;-6.61;79.56;101340.41;1725984;83;21569;-78
2020/12/08 02:32:43;;;;;;;45.60;27.95;;;;;;;-6.58;79.62;101324.82;1747366;81;21185;-78
2020/12/08 02:35:49;;;;;;;25.90;13.58;;;;;;;-6.57;79.76;101334.55;1705044;84;21193;-78
2020/12/08 02:38:56;;;;;;;26.97;19.90;;;;;;;-6.53;79.93;101334.42;1704333;84;21898;-78
2020/12/08 02:42:01;;;;;;;22.05;11.10;;;;;;;-6.50;80.06;101330.31;1705045;84;21351;-78
2020/12/08 02:45:08;;;;;;;23.77;10.85;;;;;;;-6.49;79.98;101341.87;1704916;84;21359;-78
2020/12/08 02:48:16;;;;;;;27.22;10.63;;;;;;;-6.47;80.00;101332.03;1709045;84;21344;-78
2020/12/08 02:51:28;;;;;;;21.20;10.72;;;;;;;-6.46;79.71;101342.63;1775666;81;21224;-78
2020/12/08 02:54:34;;;;;;;30.92;15.28;;;;;;;-6.47;79.36;101338.23;1774201;81;21298;-78
2020/12/08 02:57:41;;;;;;;27.73;14.90;;;;;;;-6.53;79.00;101321.11;1775664;81;21304;-77
2020/12/08 03:00:46;;;;;;;29.50;16.05;;;;;;;-6.60;78.93;101350.12;1776252;81;21307;-77
2020/12/08 03:03:53;;;;;;;40.80;19.02;;;;;;;-6.63;78.91;101335.59;1707753;84;21366;-78
2020/12/08 03:06:59;;;;;;;23.67;10.78;;;;;;;-6.65;79.06;101342.73;1708780;84;21315;-77
2020/12/08 03:10:04;;;;;;;37.65;18.25;;;;;;;-6.60;79.45;101342.61;1707722;84;21700;-77
2020/12/08 03:13:10;;;;;;;39.33;22.10;;;;;;;-6.56;79.85;101369.55;1773966;81;21911;-77
2020/12/08 03:16:17;;;;;;;48.38;27.87;;;;;;;-6.57;80.62;101344.73;1774804;81;21921;-77
2020/12/08 03:19:23;;;;;;;57.80;40.23;;;;;;;-6.55;81.32;101345.55;1708671;84;21331;-78
2020/12/08 03:22:30;;;;;;;17.98;9.05;;;;;;;-6.55;81.69;101349.54;1775677;81;21230;-78
2020/12/08 03:25:37;;;;;;;32.65;21.35;;;;;;;-6.52;81.88;101349.47;1747038;81;21283;-78
2020/12/08 03:28:44;;;;;;;30.57;19.55;;;;;;;-6.47;81.76;101349.34;1775438;81;21461;-78
2020/12/08 03:31:51;;;;;;;31.37;19.73;;;;;;;-6.46;81.67;101355.94;1774916;81;21268;-78
2020/12/08 03:34:58;;;;;;;33.92;25.23;;;;;;;-6.48;81.84;101336.48;1707817;84;21358;-78
2020/12/08 03:38:03;;;;;;;30.75;19.60;;;;;;;-6.50;82.11;101339.63;1708121;84;21264;-77
2020/12/08 03:41:10;;;;;;;62.45;46.15;;;;;;;-6.52;82.43;101333.95;1708906;84;21324;-77
2020/12/08 03:44:18;;;;;;;26.77;19.00;;;;;;;-6.51;82.65;101323.25;1776660;81;21752;-77
2020/12/08 03:47:26;;;;;;;16.40;11.08;;;;;;;-6.49;82.74;101339.20;1703275;84;21351;-77
2020/12/08 03:50:32;;;;;;;21.65;13.75;;;;;;;-6.46;82.69;101329.31;1698191;84;21351;-78
2020/12/08 03:53:39;;;;;;;39.20;26.40;;;;;;;-6.41;82.48;101320.33;1764507;81;21229;-77
2020/12/08 03:56:48;;;;;;;27.48;17.48;;;;;;;-6.40;82.48;101326.06;1763109;81;21213;-77
2020/12/08 03:59:54;;;;;;;34.10;22.35;;;;;;;-6.38;82.46;101316.27;1747564;81;21307;-77
2020/12/08 04:03:01;;;;;;;32.05;17.15;;;;;;;-6.40;82.49;101319.41;1698045;84;21285;-77
2020/12/08 04:06:13;;;;;;;40.10;26.57;;;;;;;-6.44;82.49;101326.17;1699636;84;21884;-77
2020/12/08 04:09:19;;;;;;;31.82;20.37;;;;;;;-6.42;82.51;101328.78;1763562;81;21324;-77
2020/12/08 04:12:26;;;;;;;29.20;15.53;;;;;;;-6.42;82.36;101326.58;1765222;81;21308;-77
2020/12/08 04:15:32;;;;;;;26.20;17.92;;;;;;;-6.43;82.33;101333.70;1765829;81;21293;-77
2020/12/08 04:18:39;;;;;;;28.80;16.57;;;;;;;-6.41;82.23;101323.00;1765273;81;21733;-77
2020/12/08 04:21:45;;;;;;;32.58;17.40;;;;;;;-6.39;82.22;101315.86;1764880;81;21221;-77
2020/12/08 04:24:53;;;;;;;25.80;15.80;;;;;;;-6.35;82.18;101325.47;1699658;84;21827;-77
2020/12/08 04:27:59;;;;;;;26.57;13.78;;;;;;;-6.35;82.08;101318.81;1699566;84;21311;-77
2020/12/08 04:31:06;;;;;;;22.42;12.63;;;;;;;-6.38;82.10;101328.24;1698565;84;21883;-77
2020/12/08 04:34:12;;;;;;;33.30;23.25;;;;;;;-6.37;82.16;101319.33;1699611;84;21332;-77
2020/12/08 04:37:18;;;;;;;21.70;9.13;;;;;;;-6.38;82.28;101329.58;1764433;81;21311;-77
2020/12/08 04:40:23;;;;;;;69.42;47.15;;;;;;;-6.41;82.51;101325.66;1743304;81;21335;-77
2020/12/08 04:43:29;;;;;;;25.27;16.25;;;;;;;-6.41;82.67;101307.02;1734746;82;21243;-78
2020/12/08 04:46:36;;;;;;;23.67;15.45;;;;;;;-6.39;82.74;101319.39;1734691;82;21289;-78
2020/12/08 04:49:43;;;;;;;23.87;15.10;;;;;;;-6.35;82.75;101320.14;1754014;80;21335;-78
2020/12/08 04:52:49;;;;;;;36.73;24.87;;;;;;;-6.32;82.72;101333.38;1743686;80;21815;-78
2020/12/08 04:55:56;;;;;;;32.73;16.20;;;;;;;-6.29;82.59;101326.64;1738566;82;21283;-78
2020/12/08 04:59:04;;;;;;;40.73;24.85;;;;;;;-6.28;82.49;101329.72;1735996;81;21272;-77
2020/12/08 05:02:12;;;;;;;26.57;14.83;;;;;;;-6.27;82.56;101332.33;1733557;81;21311;-77
2020/12/08 05:05:18;;;;;;;30.35;15.83;;;;;;;-6.22;82.71;101332.19;1739751;82;21284;-77
2020/12/08 05:08:23;;;;;;;24.47;15.88;;;;;;;-6.19;82.80;101332.11;1734842;82;21178;-78
2020/12/08 05:11:34;;;;;;;21.48;12.55;;;;;;;-6.19;82.61;101326.32;1737599;81;21285;-77
2020/12/08 05:14:40;;;;;;;;;;;;;;;-6.19;82.46;101348.09;1742273;82;21488;-78
2020/12/08 05:17:46;;;;;;;30.32;20.52;;;;;;;-6.21;82.36;101334.83;1748124;81;20313;-78
2020/12/08 05:20:52;;;;;;;27.58;16.62;;;;;;;-6.21;82.43;101340.16;1738929;82;21187;-78
2020/12/08 05:23:58;;;;;;;31.10;18.95;;;;;;;-6.16;82.40;101348.02;1741974;81;21307;-78
2020/12/08 05:27:11;;;;;;;58.38;41.55;;;;;;;-6.14;82.50;101350.16;1740466;81;21348;-77
2020/12/08 05:30:16;;;;;;;31.35;22.30;;;;;;;-6.14;82.71;101344.83;1735890;81;21304;-79
2020/12/08 05:33:24;;;;;;;34.78;24.07;;;;;;;-6.11;82.99;101357.20;1741738;81;22013;-77
2020/12/08 05:36:29;;;;;;;39.70;24.40;;;;;;;-6.08;83.19;101354.42;1737744;81;21331;-77
2020/12/08 05:39:36;;;;;;;40.80;28.62;;;;;;;-6.04;83.39;101354.29;1737804;81;21883;-79
2020/12/08 05:42:45;;;;;;;37.75;24.05;;;;;;;-6.03;83.60;101354.70;1732138;81;21205;-79
2020/12/08 05:45:52;;;;;;;33.50;21.23;;;;;;;-6.05;83.85;101357.88;1741852;81;21317;-78
2020/12/08 05:48:59;;;;;;;57.05;42.93;;;;;;;-5.99;84.10;101363.48;1716474;81;21309;-80
2020/12/08 05:52:05;;;;;;;38.67;23.62;;;;;;;-5.91;84.14;101348.11;1706763;80;21294;-78
2020/12/08 05:55:22;;;;;;;39.95;27.40;;;;;;;-5.88;84.13;101349.36;1724771;80;21233;-78
2020/12/08 05:58:27;;;;;;;25.30;15.30;;;;;;;-5.82;84.08;101353.62;1718718;82;21302;-77
2020/12/08 06:01:33;;;;;;;30.65;14.87;;;;;;;-5.77;83.97;101357.88;1709788;82;21904;-77
2020/12/08 06:04:51;;;;;;;24.65;13.10;;;;;;;-5.72;83.88;101360.41;1727026;82;21314;-78
2020/12/08 06:07:57;;;;;;;30.75;19.73;;;;;;;-5.70;83.81;101354.55;1723271;82;21627;-76
2020/12/08 06:11:05;;;;;;;19.02;8.60;;;;;;;-5.67;83.86;101362.47;1732183;80;21248;-77
2020/12/08 06:14:12;;;;;;;29.98;16.77;;;;;;;-5.64;83.92;101354.85;1721047;82;21408;-77
2020/12/08 06:17:38;;;;;;;27.85;12.47;;;;;;;-5.61;83.93;101362.27;1706885;82;21342;-77
2020/12/08 06:20:59;;;;;;;23.55;11.85;;;;;;;-5.55;83.81;101349.20;1686385;82;21734;-78
2020/12/08 06:36:48;;;;;;;44.08;27.70;;;;;;;-5.34;83.21;101343.19;1822581;76;22635;-79
2020/12/08 06:40:21;;;;;;;29.27;18.67;;;;;;;-5.35;83.11;101335.25;1782886;78;21213;-79
2020/12/08 06:57:43;;;;;;;26.30;18.32;;;;;;;-5.07;81.92;101349.41;1858143;74;28213;-78
2020/12/08 07:00:51;;;;;;;33.15;20.50;;;;;;;-5.03;81.49;101345.72;1848936;75;21287;-77
2020/12/08 07:04:03;;;;;;;24.92;17.07;;;;;;;-4.96;80.73;101352.57;1848294;75;21294;-80
2020/12/08 07:07:15;;;;;;;50.28;35.68;;;;;;;-4.95;80.31;101354.31;1847280;75;21278;-77
2020/12/08 07:10:28;;;;;;;35.73;19.85;;;;;;;-4.96;79.90;101355.23;1780291;78;21976;-80
2020/12/08 07:13:38;;;;;;;37.88;22.95;;;;;;;-4.98;79.69;101357.10;1759605;78;21346;-79
2020/12/08 07:16:47;;;;;;;;;;;;;;;-4.97;79.57;101337.49;1774742;79;21195;-77
2020/12/08 07:19:56;;;;;;;24.12;14.68;;;;;;;-4.95;79.53;101344.09;1769323;78;20303;-78
2020/12/08 07:23:10;;;;;;;22.00;11.03;;;;;;;-4.93;79.22;101345.80;1788068;79;21291;-81
2020/12/08 07:26:25;;;;;;;31.37;20.30;;;;;;;-4.87;79.33;101342.05;1768789;78;21375;-77
2020/12/08 07:29:39;;;;;;;21.93;12.30;;;;;;;-4.74;79.34;101341.16;1737508;79;21801;-77
2020/12/08 07:32:48;;;;;;;18.98;10.38;;;;;;;-4.62;79.18;101344.71;1776141;78;21275;-79
2020/12/08 07:35:57;;;;;;;16.95;10.85;;;;;;;-4.48;78.94;101334.87;1756583;78;21282;-80
2020/12/08 07:39:04;;;;;;;25.48;15.68;;;;;;;-4.37;78.50;101341.58;1778320;79;21263;-82
2020/12/08 07:42:16;;;;;;;61.83;35.15;;;;;;;-4.26;78.09;101328.29;1779423;79;21693;-79
2020/12/08 07:45:22;;;;;;;24.40;13.25;;;;;;;-4.22;77.59;101334.80;1783392;78;21310;-77
2020/12/08 07:48:28;;;;;;;31.52;20.68;;;;;;;-4.14;77.42;101327.81;1783423;78;21327;-79
2020/12/08 07:51:36;;;;;;;45.67;32.83;;;;;;;-4.04;77.19;101333.70;1757962;80;21286;-79
2020/12/08 07:54:43;;;;;;;28.52;14.70;;;;;;;-3.94;76.88;101327.07;1773792;78;21298;-78
2020/12/08 07:57:53;;;;;;;41.18;31.77;;;;;;;-3.82;76.84;101327.05;1750575;80;21659;-79
2020/12/08 08:00:58;;;;;;;26.77;20.60;;;;;;;-3.68;76.68;101323.36;1728938;81;21410;-78
2020/12/08 08:04:04;;;;;;;25.95;17.70;;;;;;;-3.54;76.61;101308.96;1760130;79;21889;-78
2020/12/08 08:07:13;;;;;;;20.12;14.05;;;;;;;-3.45;75.98;101300.56;1753395;79;21326;-79
2020/12/08 08:10:18;;;;;;;30.23;21.48;;;;;;;-3.37;75.57;101309.16;1735278;81;21812;-79
2020/12/08 08:13:25;;;;;;;31.50;20.72;;;;;;;-3.34;75.14;101312.15;1723401;81;21306;-78
2020/12/08 08:16:36;;;;;;;19.57;12.78;;;;;;;-3.31;75.09;101293.78;1728881;81;21229;-77
2020/12/08 08:19:55;;;;;;;21.07;13.05;;;;;;;-3.24;74.95;101316.69;1727063;81;21381;-77
2020/12/08 08:23:02;;;;;;;21.50;10.13;;;;;;;-3.16;74.69;101286.44;1758528;79;21322;-81
2020/12/08 08:26:14;;;;;;;24.27;17.27;;;;;;;-3.06;74.81;101293.60;1755936;79;21307;-80
2020/12/08 08:29:22;;;;;;;24.95;18.17;;;;;;;-2.99;74.11;101291.08;1756337;79;21207;-79
2020/12/08 08:32:28;;;;;;;39.15;30.30;;;;;;;-2.97;73.93;101268.64;1754808;79;22281;-77
2020/12/08 08:35:32;;;;;;;30.48;21.37;;;;;;;-2.99;73.53;101263.84;1753186;79;21366;-77
2020/12/08 08:38:42;;;;;;;10.85;6.33;;;;;;;-2.98;73.51;101256.20;1760458;79;21309;-80
2020/12/08 08:41:46;;;;;;;16.93;9.65;;;;;;;-2.93;73.20;101267.58;1748556;80;21208;-78
2020/12/08 08:44:52;;;;;;;37.30;24.15;;;;;;;-2.92;72.90;101263.95;1719946;81;21378;-78
2020/12/08 08:48:00;;;;;;;17.37;14.53;;;;;;;-2.89;72.56;101250.91;1758635;80;21346;-78
2020/12/08 08:51:06;;;;;;;25.35;15.40;;;;;;;-2.89;72.52;101241.07;1757998;80;21319;-78
2020/12/08 08:54:12;;;;;;;19.73;12.05;;;;;;;-2.81;72.42;101257.28;1761532;80;21537;-78
2020/12/08 08:57:18;;;;;;;64.42;51.08;;;;;;;-2.75;72.11;101257.00;1749533;80;21165;-80
2020/12/08 09:00:24;;;;;;;24.57;17.15;;;;;;;-2.72;71.93;101248.84;1754047;80;21329;-79
2020/12/08 09:03:35;;;;;;;39.55;21.80;;;;;;;-2.64;71.94;101251.55;1772064;79;21257;-78
2020/12/08 09:06:43;;;;;;;;;;;;;;;-2.57;71.25;101242.78;1788974;78;21292;-78
2020/12/08 09:09:50;;;;;;;19.02;13.43;;;;;;;-2.50;71.33;101236.19;1788360;79;20322;-79
2020/12/08 09:12:55;;;;;;;15.75;10.72;;;;;;;-2.39;71.02;101248.64;1788005;78;21236;-79
2020/12/08 09:16:05;;;;;;;36.60;29.15;;;;;;;-2.30;70.78;101257.20;1772383;78;21378;-79
2020/12/08 09:19:11;;;;;;;21.68;14.25;;;;;;;-2.23;70.59;101246.58;1771560;78;21306;-79
2020/12/08 09:22:16;;;;;;;24.55;16.90;;;;;;;-2.16;70.44;101252.92;1775816;78;21298;-78
2020/12/08 09:25:27;;;;;;;24.30;20.05;;;;;;;-2.07;69.53;101242.21;1779072;78;21337;-79
2020/12/08 09:28:34;;;;;;;13.20;7.87;;;;;;;-2.09;69.29;101249.47;1781407;78;21377;-77
2020/12/08 09:31:41;;;;;;;25.57;19.25;;;;;;;-2.06;69.40;101249.34;1791026;78;21375;-79
2020/12/08 09:34:48;;;;;;;14.00;7.05;;;;;;;-2.08;68.57;101244.03;1756166;80;21329;-79
2020/12/08 09:37:57;;;;;;;46.13;34.33;;;;;;;-2.04;68.56;101249.25;1792394;78;21207;-78
2020/12/08 09:41:05;;;;;;;24.90;17.27;;;;;;;-2.06;67.75;101246.19;1783546;79;21275;-78
2020/12/08 09:44:18;;;;;;;17.40;12.35;;;;;;;-2.09;67.97;101238.75;1761761;80;21211;-78
2020/12/08 09:47:26;;;;;;;24.02;15.13;;;;;;;-2.08;67.80;101249.39;1784033;78;21225;-79
2020/12/08 09:50:32;;;;;;;19.48;13.72;;;;;;;-2.04;67.83;101239.88;1793629;78;21946;-78
2020/12/08 09:53:42;;;;;;;14.25;8.48;;;;;;;-2.01;67.43;101251.33;1787604;78;21279;-80
2020/12/08 09:57:05;;;;;;;14.18;7.75;;;;;;;-1.95;67.68;101229.58;1779216;79;21311;-79
2020/12/08 10:00:32;;;;;;;24.95;15.90;;;;;;;-1.89;67.33;101238.65;1788218;78;21302;-80
2020/12/08 10:03:51;;;;;;;15.40;11.05;;;;;;;-1.82;67.15;101230.72;1788812;78;21450;-79
2020/12/08 10:07:04;;;;;;;24.92;18.90;;;;;;;-1.77;67.01;101233.17;1782798;78;21230;-79
2020/12/08 10:10:11;;;;;;;18.42;11.83;;;;;;;-1.72;66.91;101223.09;1788644;78;21344;-80
2020/12/08 10:13:45;;;;;;;23.77;14.87;;;;;;;-1.67;66.58;101278.72;1787344;78;21619;-79
2020/12/08 10:27:15;;;;;;;22.95;14.18;;;;;;;-1.60;66.30;101242.61;1814958;76;22239;-80
2020/12/08 10:30:23;;;;;;;18.17;11.40;;;;;;;-1.62;66.09;101220.81;1791670;78;21335;-79
2020/12/08 10:33:36;;;;;;;13.10;8.53;;;;;;;-1.59;66.10;101218.86;1814622;77;21304;-79
2020/12/08 10:36:41;;;;;;;19.95;13.35;;;;;;;-1.53;65.81;101225.72;1810864;78;21405;-79
2020/12/08 10:39:49;;;;;;;18.55;5.65;;;;;;;-1.52;65.74;101235.50;1755223;80;22355;-79
2020/12/08 10:42:56;;;;;;;26.60;20.88;;;;;;;-1.51;65.66;101229.66;1792612;79;21302;-78
2020/12/08 10:46:04;;;;;;;23.15;14.03;;;;;;;-1.45;65.85;101226.69;1793158;79;21366;-79
2020/12/08 10:49:10;;;;;;;37.50;26.93;;;;;;;-1.38;65.49;101230.31;1786712;78;21318;-78
2020/12/08 10:52:17;;;;;;;19.40;9.35;;;;;;;-1.34;65.17;101221.16;1819282;77;21322;-78
2020/12/08 10:55:25;;;;;;;31.25;21.10;;;;;;;-1.31;65.16;101226.38;1817833;77;21298;-78
2020/12/08 10:58:33;;;;;;;26.75;14.03;;;;;;;-1.25;64.96;101210.43;1826750;77;21321;-78
2020/12/08 11:01:39;;;;;;;19.30;14.90;;;;;;;-1.22;64.46;101226.84;1823397;77;21640;-77
2020/12/08 11:04:47;;;;;;;14.65;7.75;;;;;;;-1.23;64.58;101208.52;1818500;77;21452;-78
2020/12/08 11:07:53;;;;;;;13.43;6.97;;;;;;;-1.22;64.25;101218.78;1787428;78;21318;-78
2020/12/08 11:10:59;;;;;;;11.85;6.37;;;;;;;-1.21;63.95;101220.55;1757941;80;22008;-78
2020/12/08 11:14:04;;;;;;;29.72;20.23;;;;;;;-1.20;64.13;101232.53;1785443;78;21902;-78
2020/12/08 11:17:10;;;;;;;24.85;15.85;;;;;;;-1.16;63.95;101192.50;1791129;79;21332;-78
2020/12/08 11:20:18;;;;;;;20.88;13.03;;;;;;;-1.10;63.59;101206.94;1786411;78;22232;-78
2020/12/08 11:23:27;;;;;;;28.95;20.70;;;;;;;-1.06;63.32;101211.20;1764874;78;22198;-79
2020/12/08 11:26:33;;;;;;;17.77;8.03;;;;;;;-1.04;62.78;101181.58;1785606;78;22359;-78
2020/12/08 11:29:41;;;;;;;18.87;12.13;;;;;;;-1.04;62.75;101200.38;1778317;79;21260;-80
2020/12/08 11:32:47;;;;;;;19.23;8.93;;;;;;;-1.03;62.21;101191.40;1775145;79;21307;-79
2020/12/08 11:35:54;;;;;;;15.15;7.67;;;;;;;-1.03;61.91;101210.19;1769506;79;21196;-80
2020/12/08 11:39:27;;;;;;;16.95;8.30;;;;;;;-1.00;61.94;101191.21;1771160;79;22009;-78
2020/12/08 11:42:36;;;;;;;14.80;8.65;;;;;;;-0.97;61.16;101182.14;1768814;79;22455;-80
2020/12/08 11:45:42;;;;;;;27.73;13.22;;;;;;;-1.01;60.71;101175.19;1764585;79;21866;-80
2020/12/08 11:48:50;;;;;;;19.62;6.70;;;;;;;-1.05;61.03;101182.06;1767255;79;21311;-80
2020/12/08 11:51:55;;;;;;;18.50;11.88;;;;;;;-1.03;60.75;101184.68;1766934;79;22394;-78
2020/12/08 11:55:06;;;;;;;10.60;5.33;;;;;;;-1.00;60.49;101171.55;1748901;79;21300;-79
2020/12/08 11:58:11;;;;;;;15.20;8.40;;;;;;;-0.95;60.15;101199.03;1774113;79;21689;-78
2020/12/08 12:01:17;;;;;;;16.57;11.88;;;;;;;-0.96;59.36;101180.70;1732710;80;21275;-79
2020/12/08 12:04:31;;;;;;;38.73;30.30;;;;;;;-0.95;59.39;101186.94;1738527;80;21315;-80
2020/12/08 12:07:44;;;;;;;17.07;8.80;;;;;;;-0.97;59.21;101177.63;1730261;80;21383;-79
2020/12/08 12:10:52;;;;;;;23.77;12.37;;;;;;;-0.94;59.56;101190.91;1710844;81;21192;-78
2020/12/08 12:14:06;;;;;;;15.75;9.00;;;;;;;-0.90;59.49;101172.79;1787414;78;21755;-80
2020/12/08 12:17:25;;;;;;;17.27;10.58;;;;;;;-0.89;59.60;101192.87;1771857;78;21271;-80
2020/12/08 12:20:35;;;;;;;17.27;7.47;;;;;;;-0.90;59.76;101183.05;1775671;78;21695;-81
2020/12/08 12:23:41;;;;;;;17.85;11.45;;;;;;;-0.87;59.55;101171.30;1798136;78;21306;-80
2020/12/08 12:26:54;;;;;;;15.45;6.15;;;;;;;-0.90;59.11;101166.94;1797856;78;21642;-79
2020/12/08 12:30:05;;;;;;;9.35;4.20;;;;;;;-0.87;58.64;101170.81;1798488;78;21326;-78
2020/12/08 12:33:38;;;;;;;8.40;5.55;;;;;;;-0.84;57.70;101177.38;1734163;80;21275;-78
2020/12/08 12:36:57;;;;;;;13.15;5.12;;;;;;;-0.85;57.12;101167.59;1803615;78;21146;-80
2020/12/08 12:40:04;;;;;;;9.98;6.85;;;;;;;-0.90;56.71;101161.57;1804488;78;22079;-80
2020/12/08 12:43:14;;;;;;;12.20;5.83;;;;;;;-0.93;56.25;101164.44;1795327;77;21336;-80
2020/12/08 12:46:23;;;;;;;18.70;5.85;;;;;;;-0.93;55.70;101168.47;1800534;78;22001;-80
2020/12/08 12:49:36;;;;;;;8.48;4.40;;;;;;;-0.92;55.38;101146.02;1796541;78;22121;-80
2020/12/08 12:52:48;;;;;;;15.45;4.40;;;;;;;-0.92;54.19;101148.70;1799167;78;21353;-80
2020/12/08 12:55:59;;;;;;;17.20;8.40;;;;;;;-0.93;52.26;101152.83;1788888;78;21210;-79
2020/12/08 12:59:05;;;;;;;15.18;7.67;;;;;;;-0.96;50.89;101156.53;1793100;78;21331;-79
2020/12/08 13:02:13;;;;;;;17.67;9.70;;;;;;;-0.97;50.29;101140.03;1803878;77;21204;-80
2020/12/08 13:05:21;;;;;;;22.27;9.60;;;;;;;-1.00;50.06;101142.88;1799644;78;21330;-79
2020/12/08 13:08:26;;;;;;;23.00;7.00;;;;;;;-1.03;49.72;101147.09;1797403;78;21652;-77
2020/12/08 13:11:32;;;;;;;9.68;4.75;;;;;;;-1.03;49.78;101155.14;1801130;78;21306;-79
2020/12/08 13:14:38;;;;;;;11.40;4.85;;;;;;;-1.05;48.47;101143.59;1801748;78;22644;-80
2020/12/08 13:17:46;;;;;;;9.55;4.33;;;;;;;-1.08;46.79;101136.59;1802198;78;21272;-79
2020/12/08 13:20:53;;;;;;;12.53;4.28;;;;;;;-1.09;46.69;101151.42;1797279;78;21294;-79
2020/12/08 13:24:00;;;;;;;12.68;4.15;;;;;;;-1.12;45.63;101146.23;1771907;79;21328;-80
2020/12/08 13:27:05;;;;;;;11.12;4.03;;;;;;;-1.12;45.18;101130.12;1770944;80;21180;-80
2020/12/08 13:30:13;;;;;;;18.98;6.95;;;;;;;-1.15;43.64;101151.75;1769320;79;21173;-80
2020/12/08 13:33:18;;;;;;;12.82;4.62;;;;;;;-1.23;43.08;101171.41;1768540;79;21827;-80
2020/12/08 13:36:27;;;;;;;6.22;3.95;;;;;;;-1.28;43.13;101167.62;1770641;79;21276;-80
2020/12/08 13:39:32;;;;;;;7.28;3.50;;;;;;;-1.31;42.65;101172.70;1774460;79;21186;-80
2020/12/08 13:42:39;;;;;;;14.73;4.65;;;;;;;-1.37;42.18;101152.00;1769620;79;21613;-80
2020/12/08 13:45:46;;;;;;;13.85;4.67;;;;;;;-1.43;42.38;101165.27;1776923;79;21307;-81
2020/12/08 13:48:54;;;;;;;10.13;4.65;;;;;;;-1.48;42.36;101147.67;1766759;79;21299;-79
2020/12/08 13:52:01;;;;;;;10.13;4.65;;;;;;;-1.52;42.22;101155.48;1748727;80;21841;-79
2020/12/08 13:55:10;;;;;;;10.45;4.62;;;;;;;-1.56;41.99;101169.05;1729053;81;21630;-79
2020/12/08 13:58:27;;;;;;;9.58;4.92;;;;;;;-1.57;40.93;101169.13;1772580;79;21260;-80
2020/12/08 14:01:35;;;;;;;12.10;4.78;;;;;;;-1.58;40.73;101168.27;1774826;79;21283;-79
2020/12/08 14:04:43;;;;;;;11.43;5.45;;;;;;;-1.60;41.07;101166.59;1766755;79;21205;-79
2020/12/08 14:07:49;;;;;;;11.80;4.97;;;;;;;-1.67;41.26;101179.94;1771634;79;21236;-78
2020/12/08 14:10:55;;;;;;;17.57;6.65;;;;;;;-1.72;41.66;101181.51;1746331;80;21351;-79
2020/12/08 14:14:01;;;;;;;17.00;5.53;;;;;;;-1.75;40.45;101170.92;1771541;79;21315;-79
2020/12/08 14:17:08;;;;;;;12.80;5.33;;;;;;;-1.72;40.70;101171.26;1775146;79;22220;-79
2020/12/08 14:20:22;;;;;;;15.20;5.75;;;;;;;-1.76;40.95;101174.56;1739487;80;21245;-79
2020/12/08 14:23:27;;;;;;;14.83;5.50;;;;;;;-1.84;41.45;101177.61;1772544;79;21896;-80
2020/12/08 14:26:35;;;;;;;22.00;6.08;;;;;;;-1.89;41.79;101178.31;1749303;81;21879;-79
2020/12/08 14:29:42;;;;;;;19.37;7.83;;;;;;;-1.94;41.88;101186.19;1739358;81;21954;-79
2020/12/08 14:32:47;;;;;;;15.23;5.35;;;;;;;-1.98;41.82;101187.28;1770441;79;21826;-79
2020/12/08 14:35:55;;;;;;;14.60;5.70;;;;;;;-2.00;42.17;101179.33;1769327;80;21303;-79
2020/12/08 14:39:01;;;;;;;20.75;5.92;;;;;;;-2.00;42.21;101183.83;1806590;79;21275;-79
2020/12/08 14:42:06;;;;;;;13.88;5.33;;;;;;;-2.03;42.31;101187.50;1805742;77;21831;-79
2020/12/08 14:45:14;;;;;;;19.92;5.60;;;;;;;-2.04;42.66;101191.14;1814743;78;21830;-80
2020/12/08 14:48:19;;;;;;;24.43;6.42;;;;;;;-2.04;43.02;101195.16;1810601;79;21263;-79
2020/12/08 14:51:24;;;;;;;16.12;5.50;;;;;;;-2.07;42.76;101193.95;1771388;79;21326;-79
2020/12/08 14:54:29;;;;;;;21.60;6.47;;;;;;;-2.07;42.96;101193.95;1724450;82;21297;-79